sensor_id;sensor_type;location;lat;lon;timestamp;P1;durP1;ratioP1;P2;durP2;ratioP2
53775;SDS011;44276;49.534;6.378;2024-03-23T00:53:57;62.75;;;31.25;;
53775;SDS011;44276;49.534;6.378;2024-03-23T00:56:24;69.30;;;28.45;;
53775;SDS011;44276;49.534;6.378;2024-03-23T00:58:51;60.17;;;26.35;;
53775;SDS011;44276;49.534;6.378;2024-03-23T01:01:18;44.80;;;22.55;;
53775;SDS011;44276;49.534;6.378;2024-03-23T01:03:46;37.90;;;20.50;;
53775;SDS011;44276;49.534;6.378;2024-03-23T01:06:14;31.98;;;15.77;;
53775;SDS011;44276;49.534;6.378;2024-03-23T01:08:41;30.08;;;16.92;;
53775;SDS011;44276;49.534;6.378;2024-03-23T01:11:10;28.70;;;13.88;;
53775;SDS011;44276;49.534;6.378;2024-03-23T01:13:37;25.15;;;12.52;;
53775;SDS011;44276;49.534;6.378;2024-03-23T01:16:05;21.30;;;11.65;;
53775;SDS011;44276;49.534;6.378;2024-03-23T01:18:32;22.02;;;12.07;;
53775;SDS011;44276;49.534;6.378;2024-03-23T01:20:59;23.52;;;12.25;;
53775;SDS011;44276;49.534;6.378;2024-03-23T01:25:53;34.97;;;12.07;;
53775;SDS011;44276;49.534;6.378;2024-03-23T01:28:21;32.15;;;14.93;;
53775;SDS011;44276;49.534;6.378;2024-03-23T01:30:49;36.95;;;15.07;;
53775;SDS011;44276;49.534;6.378;2024-03-23T01:33:16;23.55;;;12.35;;
53775;SDS011;44276;49.534;6.378;2024-03-23T01:35:43;27.02;;;14.23;;
53775;SDS011;44276;49.534;6.378;2024-03-23T01:38:10;29.50;;;12.73;;
53775;SDS011;44276;49.534;6.378;2024-03-23T01:40:37;20.98;;;10.93;;
53775;SDS011;44276;49.534;6.378;2024-03-23T01:45:34;25.25;;;12.32;;
53775;SDS011;44276;49.534;6.378;2024-03-23T01:48:02;28.45;;;14.10;;
53775;SDS011;44276;49.534;6.378;2024-03-23T01:50:30;21.55;;;10.43;;
53775;SDS011;44276;49.534;6.378;2024-03-23T01:52:59;24.98;;;12.43;;
53775;SDS011;44276;49.534;6.378;2024-03-23T01:55:30;22.02;;;12.00;;
53775;SDS011;44276;49.534;6.378;2024-03-23T01:57:57;23.33;;;12.13;;
53775;SDS011;44276;49.534;6.378;2024-03-23T02:00:25;28.38;;;13.15;;
53775;SDS011;44276;49.534;6.378;2024-03-23T02:02:54;18.48;;;9.15;;
53775;SDS011;44276;49.534;6.378;2024-03-23T02:05:22;8.85;;;4.30;;
53775;SDS011;44276;49.534;6.378;2024-03-23T02:07:48;6.75;;;3.80;;
53775;SDS011;44276;49.534;6.378;2024-03-23T02:10:17;3.17;;;1.75;;
53775;SDS011;44276;49.534;6.378;2024-03-23T02:12:44;4.65;;;2.58;;
53775;SDS011;44276;49.534;6.378;2024-03-23T02:15:12;3.35;;;1.98;;
53775;SDS011;44276;49.534;6.378;2024-03-23T02:17:38;2.88;;;1.73;;
53775;SDS011;44276;49.534;6.378;2024-03-23T02:20:08;1.70;;;1.10;;
53775;SDS011;44276;49.534;6.378;2024-03-23T02:22:37;3.05;;;1.92;;
53775;SDS011;44276;49.534;6.378;2024-03-23T02:25:07;3.40;;;1.45;;
53775;SDS011;44276;49.534;6.378;2024-03-23T02:27:33;3.17;;;1.58;;
53775;SDS011;44276;49.534;6.378;2024-03-23T02:30:01;2.38;;;1.08;;
53775;SDS011;44276;49.534;6.378;2024-03-23T02:32:28;1.35;;;1.08;;
53775;SDS011;44276;49.534;6.378;2024-03-23T02:34:55;1.95;;;1.00;;
53775;SDS011;44276;49.534;6.378;2024-03-23T02:37:22;0.77;;;0.50;;
53775;SDS011;44276;49.534;6.378;2024-03-23T02:39:49;2.70;;;0.43;;
53775;SDS011;44276;49.534;6.378;2024-03-23T02:42:17;1.10;;;0.65;;
53775;SDS011;44276;49.534;6.378;2024-03-23T02:44:44;0.65;;;0.50;;
53775;SDS011;44276;49.534;6.378;2024-03-23T02:49:38;0.73;;;0.25;;
53775;SDS011;44276;49.534;6.378;2024-03-23T02:52:05;0.13;;;0.10;;
53775;SDS011;44276;49.534;6.378;2024-03-23T02:54:32;0.45;;;0.20;;
53775;SDS011;44276;49.534;6.378;2024-03-23T02:56:58;0.10;;;0.10;;
53775;SDS011;44276;49.534;6.378;2024-03-23T02:59:27;0.60;;;0.20;;
53775;SDS011;44276;49.534;6.378;2024-03-23T03:01:54;0.20;;;0.13;;
53775;SDS011;44276;49.534;6.378;2024-03-23T03:04:21;0.28;;;0.10;;
53775;SDS011;44276;49.534;6.378;2024-03-23T03:06:48;0.47;;;0.47;;
53775;SDS011;44276;49.534;6.378;2024-03-23T03:09:16;1.63;;;0.40;;
53775;SDS011;44276;49.534;6.378;2024-03-23T03:11:42;0.40;;;0.20;;
53775;SDS011;44276;49.534;6.378;2024-03-23T03:14:10;0.50;;;0.50;;
53775;SDS011;44276;49.534;6.378;2024-03-23T03:16:37;0.20;;;0.10;;
53775;SDS011;44276;49.534;6.378;2024-03-23T03:19:05;0.10;;;0.10;;
53775;SDS011;44276;49.534;6.378;2024-03-23T03:21:31;0.63;;;0.25;;
53775;SDS011;44276;49.534;6.378;2024-03-23T03:23:59;0.32;;;0.15;;
53775;SDS011;44276;49.534;6.378;2024-03-23T03:26:25;0.17;;;0.15;;
53775;SDS011;44276;49.534;6.378;2024-03-23T03:28:52;0.35;;;0.30;;
53775;SDS011;44276;49.534;6.378;2024-03-23T03:33:49;0.22;;;0.22;;
53775;SDS011;44276;49.534;6.378;2024-03-23T03:36:16;2.90;;;0.40;;
53775;SDS011;44276;49.534;6.378;2024-03-23T03:38:43;1.45;;;0.40;;
53775;SDS011;44276;49.534;6.378;2024-03-23T03:41:10;2.72;;;0.47;;
53775;SDS011;44276;49.534;6.378;2024-03-23T03:43:37;0.30;;;0.30;;
53775;SDS011;44276;49.534;6.378;2024-03-23T03:46:04;1.65;;;0.63;;
53775;SDS011;44276;49.534;6.378;2024-03-23T03:48:33;1.35;;;0.50;;
53775;SDS011;44276;49.534;6.378;2024-03-23T03:51:01;0.52;;;0.30;;
53775;SDS011;44276;49.534;6.378;2024-03-23T03:53:28;1.48;;;0.82;;
53775;SDS011;44276;49.534;6.378;2024-03-23T03:55:55;0.82;;;0.60;;
53775;SDS011;44276;49.534;6.378;2024-03-23T03:58:23;2.78;;;0.50;;
53775;SDS011;44276;49.534;6.378;2024-03-23T04:00:49;0.55;;;0.22;;
53775;SDS011;44276;49.534;6.378;2024-03-23T04:03:17;2.85;;;0.32;;
53775;SDS011;44276;49.534;6.378;2024-03-23T04:05:43;0.40;;;0.28;;
53775;SDS011;44276;49.534;6.378;2024-03-23T04:08:19;1.15;;;0.50;;
53775;SDS011;44276;49.534;6.378;2024-03-23T04:10:45;5.03;;;0.50;;
53775;SDS011;44276;49.534;6.378;2024-03-23T04:13:13;0.60;;;0.60;;
53775;SDS011;44276;49.534;6.378;2024-03-23T04:15:39;0.60;;;0.50;;
53775;SDS011;44276;49.534;6.378;2024-03-23T04:18:07;2.97;;;0.50;;
53775;SDS011;44276;49.534;6.378;2024-03-23T04:20:33;0.80;;;0.50;;
53775;SDS011;44276;49.534;6.378;2024-03-23T04:23:01;0.52;;;0.47;;
53775;SDS011;44276;49.534;6.378;2024-03-23T04:25:29;0.93;;;0.50;;
53775;SDS011;44276;49.534;6.378;2024-03-23T04:27:57;1.52;;;0.30;;
53775;SDS011;44276;49.534;6.378;2024-03-23T04:30:24;0.57;;;0.20;;
53775;SDS011;44276;49.534;6.378;2024-03-23T04:32:53;0.65;;;0.30;;
53775;SDS011;44276;49.534;6.378;2024-03-23T04:35:20;1.25;;;0.30;;
53775;SDS011;44276;49.534;6.378;2024-03-23T04:37:50;0.70;;;0.20;;
53775;SDS011;44276;49.534;6.378;2024-03-23T04:40:18;0.50;;;0.22;;
53775;SDS011;44276;49.534;6.378;2024-03-23T04:42:48;0.95;;;0.40;;
53775;SDS011;44276;49.534;6.378;2024-03-23T04:45:15;2.15;;;0.45;;
53775;SDS011;44276;49.534;6.378;2024-03-23T04:50:09;0.47;;;0.40;;
53775;SDS011;44276;49.534;6.378;2024-03-23T04:52:37;0.65;;;0.60;;
53775;SDS011;44276;49.534;6.378;2024-03-23T04:55:05;0.60;;;0.35;;
53775;SDS011;44276;49.534;6.378;2024-03-23T04:57:32;0.95;;;0.57;;
53775;SDS011;44276;49.534;6.378;2024-03-23T05:00:00;2.35;;;0.98;;
53775;SDS011;44276;49.534;6.378;2024-03-23T05:02:27;1.50;;;0.90;;
53775;SDS011;44276;49.534;6.378;2024-03-23T05:04:54;2.15;;;1.00;;
53775;SDS011;44276;49.534;6.378;2024-03-23T05:07:20;1.65;;;0.80;;
53775;SDS011;44276;49.534;6.378;2024-03-23T05:09:48;0.55;;;0.52;;
53775;SDS011;44276;49.534;6.378;2024-03-23T05:12:14;3.40;;;0.50;;
53775;SDS011;44276;49.534;6.378;2024-03-23T05:14:42;1.75;;;0.65;;
53775;SDS011;44276;49.534;6.378;2024-03-23T05:17:10;3.72;;;1.05;;
53775;SDS011;44276;49.534;6.378;2024-03-23T05:19:37;5.15;;;1.42;;
53775;SDS011;44276;49.534;6.378;2024-03-23T05:22:04;7.10;;;1.17;;
53775;SDS011;44276;49.534;6.378;2024-03-23T05:24:31;4.45;;;1.13;;
53775;SDS011;44276;49.534;6.378;2024-03-23T05:26:57;4.30;;;1.73;;
53775;SDS011;44276;49.534;6.378;2024-03-23T05:29:25;7.13;;;1.75;;
53775;SDS011;44276;49.534;6.378;2024-03-23T05:31:51;3.95;;;1.40;;
53775;SDS011;44276;49.534;6.378;2024-03-23T05:34:23;9.98;;;2.13;;
53775;SDS011;44276;49.534;6.378;2024-03-23T05:36:50;7.40;;;1.98;;
53775;SDS011;44276;49.534;6.378;2024-03-23T05:39:18;4.65;;;1.73;;
53775;SDS011;44276;49.534;6.378;2024-03-23T05:41:47;4.82;;;2.35;;
53775;SDS011;44276;49.534;6.378;2024-03-23T05:44:14;5.40;;;1.60;;
53775;SDS011;44276;49.534;6.378;2024-03-23T05:46:41;9.32;;;2.60;;
53775;SDS011;44276;49.534;6.378;2024-03-23T05:49:13;5.75;;;2.15;;
53775;SDS011;44276;49.534;6.378;2024-03-23T05:51:42;8.05;;;2.20;;
53775;SDS011;44276;49.534;6.378;2024-03-23T05:54:09;6.28;;;2.75;;
53775;SDS011;44276;49.534;6.378;2024-03-23T05:56:35;7.20;;;2.63;;
53775;SDS011;44276;49.534;6.378;2024-03-23T05:59:03;9.57;;;2.45;;
53775;SDS011;44276;49.534;6.378;2024-03-23T06:01:29;5.45;;;2.83;;
53775;SDS011;44276;49.534;6.378;2024-03-23T06:03:58;9.93;;;2.67;;
53775;SDS011;44276;49.534;6.378;2024-03-23T06:06:26;8.02;;;2.30;;
53775;SDS011;44276;49.534;6.378;2024-03-23T06:08:56;8.55;;;2.50;;
53775;SDS011;44276;49.534;6.378;2024-03-23T06:11:23;10.90;;;2.28;;
53775;SDS011;44276;49.534;6.378;2024-03-23T06:13:51;5.13;;;2.88;;
53775;SDS011;44276;49.534;6.378;2024-03-23T06:16:18;4.30;;;2.28;;
53775;SDS011;44276;49.534;6.378;2024-03-23T06:18:48;9.18;;;3.72;;
53775;SDS011;44276;49.534;6.378;2024-03-23T06:21:15;5.53;;;2.50;;
53775;SDS011;44276;49.534;6.378;2024-03-23T06:23:42;9.57;;;3.50;;
53775;SDS011;44276;49.534;6.378;2024-03-23T06:26:10;8.63;;;2.60;;
53775;SDS011;44276;49.534;6.378;2024-03-23T06:28:37;8.10;;;2.40;;
53775;SDS011;44276;49.534;6.378;2024-03-23T06:31:03;16.02;;;2.90;;
53775;SDS011;44276;49.534;6.378;2024-03-23T06:33:35;5.30;;;3.22;;
53775;SDS011;44276;49.534;6.378;2024-03-23T06:36:01;9.68;;;3.20;;
53775;SDS011;44276;49.534;6.378;2024-03-23T06:38:29;7.47;;;3.58;;
53775;SDS011;44276;49.534;6.378;2024-03-23T06:40:55;14.70;;;4.50;;
53775;SDS011;44276;49.534;6.378;2024-03-23T06:43:24;8.57;;;3.72;;
53775;SDS011;44276;49.534;6.378;2024-03-23T06:45:53;10.38;;;4.10;;
53775;SDS011;44276;49.534;6.378;2024-03-23T06:48:21;9.02;;;4.38;;
53775;SDS011;44276;49.534;6.378;2024-03-23T06:53:15;12.60;;;5.00;;
53775;SDS011;44276;49.534;6.378;2024-03-23T06:58:08;9.95;;;4.25;;
53775;SDS011;44276;49.534;6.378;2024-03-23T07:00:36;9.85;;;4.32;;
53775;SDS011;44276;49.534;6.378;2024-03-23T07:03:05;15.85;;;5.88;;
53775;SDS011;44276;49.534;6.378;2024-03-23T07:05:32;8.73;;;5.75;;
53775;SDS011;44276;49.534;6.378;2024-03-23T07:07:59;7.40;;;4.22;;
53775;SDS011;44276;49.534;6.378;2024-03-23T07:10:25;13.85;;;4.35;;
53775;SDS011;44276;49.534;6.378;2024-03-23T07:12:53;9.70;;;5.53;;
53775;SDS011;44276;49.534;6.378;2024-03-23T07:15:19;13.75;;;5.00;;
53775;SDS011;44276;49.534;6.378;2024-03-23T07:17:47;12.82;;;4.88;;
53775;SDS011;44276;49.534;6.378;2024-03-23T07:20:14;9.48;;;3.97;;
53775;SDS011;44276;49.534;6.378;2024-03-23T07:22:41;14.00;;;4.80;;
53775;SDS011;44276;49.534;6.378;2024-03-23T07:25:08;12.20;;;5.90;;
53775;SDS011;44276;49.534;6.378;2024-03-23T07:27:35;6.97;;;3.35;;
53775;SDS011;44276;49.534;6.378;2024-03-23T07:30:01;7.05;;;4.05;;
53775;SDS011;44276;49.534;6.378;2024-03-23T07:32:28;9.95;;;3.72;;
53775;SDS011;44276;49.534;6.378;2024-03-23T07:34:56;8.38;;;3.33;;
53775;SDS011;44276;49.534;6.378;2024-03-23T07:37:23;10.88;;;3.17;;
53775;SDS011;44276;49.534;6.378;2024-03-23T07:39:51;12.60;;;4.72;;
53775;SDS011;44276;49.534;6.378;2024-03-23T07:42:18;7.63;;;3.03;;
53775;SDS011;44276;49.534;6.378;2024-03-23T07:44:44;11.55;;;4.00;;
53775;SDS011;44276;49.534;6.378;2024-03-23T07:47:11;12.13;;;3.15;;
53775;SDS011;44276;49.534;6.378;2024-03-23T07:49:38;12.23;;;4.00;;
53775;SDS011;44276;49.534;6.378;2024-03-23T07:52:07;9.38;;;2.92;;
53775;SDS011;44276;49.534;6.378;2024-03-23T07:54:33;10.00;;;3.20;;
53775;SDS011;44276;49.534;6.378;2024-03-23T07:57:00;9.63;;;3.25;;
53775;SDS011;44276;49.534;6.378;2024-03-23T07:59:27;5.15;;;2.60;;
53775;SDS011;44276;49.534;6.378;2024-03-23T08:01:57;10.10;;;3.28;;
53775;SDS011;44276;49.534;6.378;2024-03-23T08:04:23;10.52;;;3.90;;
53775;SDS011;44276;49.534;6.378;2024-03-23T08:06:50;11.25;;;5.70;;
53775;SDS011;44276;49.534;6.378;2024-03-23T08:09:18;7.90;;;4.00;;
53775;SDS011;44276;49.534;6.378;2024-03-23T08:11:45;13.18;;;4.88;;
53775;SDS011;44276;49.534;6.378;2024-03-23T08:14:12;12.68;;;4.30;;
53775;SDS011;44276;49.534;6.378;2024-03-23T08:16:39;9.35;;;3.40;;
53775;SDS011;44276;49.534;6.378;2024-03-23T08:19:06;8.93;;;4.00;;
53775;SDS011;44276;49.534;6.378;2024-03-23T08:21:34;8.77;;;4.32;;
53775;SDS011;44276;49.534;6.378;2024-03-23T08:24:00;10.50;;;3.97;;
53775;SDS011;44276;49.534;6.378;2024-03-23T08:26:29;6.70;;;3.65;;
53775;SDS011;44276;49.534;6.378;2024-03-23T08:28:55;7.28;;;3.13;;
53775;SDS011;44276;49.534;6.378;2024-03-23T08:31:22;6.18;;;3.30;;
53775;SDS011;44276;49.534;6.378;2024-03-23T08:33:48;8.02;;;3.38;;
53775;SDS011;44276;49.534;6.378;2024-03-23T08:36:16;8.38;;;3.72;;
53775;SDS011;44276;49.534;6.378;2024-03-23T08:38:42;8.32;;;2.25;;
53775;SDS011;44276;49.534;6.378;2024-03-23T08:41:10;5.63;;;2.75;;
53775;SDS011;44276;49.534;6.378;2024-03-23T08:43:38;10.15;;;3.50;;
53775;SDS011;44276;49.534;6.378;2024-03-23T08:46:07;4.90;;;2.50;;
53775;SDS011;44276;49.534;6.378;2024-03-23T08:48:35;8.63;;;2.60;;
53775;SDS011;44276;49.534;6.378;2024-03-23T08:51:05;8.73;;;2.08;;
53775;SDS011;44276;49.534;6.378;2024-03-23T08:53:33;6.07;;;2.90;;
53775;SDS011;44276;49.534;6.378;2024-03-23T08:56:01;7.72;;;2.35;;
53775;SDS011;44276;49.534;6.378;2024-03-23T08:58:29;6.03;;;1.92;;
53775;SDS011;44276;49.534;6.378;2024-03-23T09:01:04;7.50;;;2.00;;
53775;SDS011;44276;49.534;6.378;2024-03-23T09:03:32;9.52;;;2.53;;
53775;SDS011;44276;49.534;6.378;2024-03-23T09:06:00;6.10;;;2.00;;
53775;SDS011;44276;49.534;6.378;2024-03-23T09:08:31;4.53;;;2.00;;
53775;SDS011;44276;49.534;6.378;2024-03-23T09:11:03;7.78;;;1.98;;
53775;SDS011;44276;49.534;6.378;2024-03-23T09:13:31;7.32;;;1.92;;
53775;SDS011;44276;49.534;6.378;2024-03-23T09:15:59;4.57;;;2.00;;
53775;SDS011;44276;49.534;6.378;2024-03-23T09:18:26;5.53;;;1.60;;
53775;SDS011;44276;49.534;6.378;2024-03-23T09:20:54;9.38;;;2.25;;
53775;SDS011;44276;49.534;6.378;2024-03-23T09:23:20;8.88;;;2.75;;
53775;SDS011;44276;49.534;6.378;2024-03-23T09:25:48;12.02;;;2.80;;
53775;SDS011;44276;49.534;6.378;2024-03-23T09:30:41;9.68;;;3.72;;
53775;SDS011;44276;49.534;6.378;2024-03-23T09:35:37;10.38;;;1.63;;
53775;SDS011;44276;49.534;6.378;2024-03-23T09:38:04;5.78;;;2.00;;
53775;SDS011;44276;49.534;6.378;2024-03-23T09:40:32;6.43;;;2.15;;
53775;SDS011;44276;49.534;6.378;2024-03-23T09:42:59;5.63;;;2.72;;
53775;SDS011;44276;49.534;6.378;2024-03-23T09:45:27;9.27;;;3.38;;
53775;SDS011;44276;49.534;6.378;2024-03-23T09:47:54;6.75;;;3.05;;
53775;SDS011;44276;49.534;6.378;2024-03-23T09:50:22;7.75;;;3.63;;
53775;SDS011;44276;49.534;6.378;2024-03-23T09:55:17;10.20;;;3.50;;
53775;SDS011;44276;49.534;6.378;2024-03-23T10:00:11;10.90;;;3.38;;
53775;SDS011;44276;49.534;6.378;2024-03-23T10:02:38;8.68;;;3.95;;
53775;SDS011;44276;49.534;6.378;2024-03-23T10:05:17;9.52;;;3.60;;
53775;SDS011;44276;49.534;6.378;2024-03-23T10:07:47;8.43;;;3.42;;
53775;SDS011;44276;49.534;6.378;2024-03-23T10:10:16;16.25;;;3.60;;
53775;SDS011;44276;49.534;6.378;2024-03-23T10:12:45;10.65;;;3.50;;
53775;SDS011;44276;49.534;6.378;2024-03-23T10:15:17;9.55;;;2.95;;
53775;SDS011;44276;49.534;6.378;2024-03-23T10:17:45;3.60;;;1.65;;
53775;SDS011;44276;49.534;6.378;2024-03-23T10:20:12;3.35;;;0.90;;
53775;SDS011;44276;49.534;6.378;2024-03-23T10:22:45;5.95;;;1.30;;
53775;SDS011;44276;49.534;6.378;2024-03-23T10:25:12;5.65;;;1.02;;
53775;SDS011;44276;49.534;6.378;2024-03-23T10:27:41;3.88;;;1.23;;
53775;SDS011;44276;49.534;6.378;2024-03-23T10:30:09;6.70;;;1.55;;
53775;SDS011;44276;49.534;6.378;2024-03-23T10:32:38;6.82;;;0.40;;
53775;SDS011;44276;49.534;6.378;2024-03-23T10:35:15;1.65;;;0.40;;
53775;SDS011;44276;49.534;6.378;2024-03-23T10:37:44;2.40;;;0.30;;
53775;SDS011;44276;49.534;6.378;2024-03-23T10:40:12;1.77;;;0.47;;
53775;SDS011;44276;49.534;6.378;2024-03-23T10:42:40;3.15;;;0.50;;
53775;SDS011;44276;49.534;6.378;2024-03-23T10:45:08;3.60;;;0.65;;
53775;SDS011;44276;49.534;6.378;2024-03-23T10:47:36;0.77;;;0.47;;
53775;SDS011;44276;49.534;6.378;2024-03-23T10:50:04;1.25;;;0.40;;
53775;SDS011;44276;49.534;6.378;2024-03-23T10:52:31;1.52;;;0.30;;
53775;SDS011;44276;49.534;6.378;2024-03-23T10:54:59;3.17;;;0.70;;
53775;SDS011;44276;49.534;6.378;2024-03-23T10:57:31;0.50;;;0.22;;
53775;SDS011;44276;49.534;6.378;2024-03-23T11:00:09;3.33;;;0.68;;
53775;SDS011;44276;49.534;6.378;2024-03-23T11:02:37;0.70;;;0.30;;
53775;SDS011;44276;49.534;6.378;2024-03-23T11:05:20;4.35;;;0.82;;
53775;SDS011;44276;49.534;6.378;2024-03-23T11:07:55;2.25;;;0.95;;
53775;SDS011;44276;49.534;6.378;2024-03-23T11:10:26;2.55;;;0.77;;
53775;SDS011;44276;49.534;6.378;2024-03-23T11:12:54;1.17;;;0.63;;
53775;SDS011;44276;49.534;6.378;2024-03-23T11:15:23;3.70;;;1.52;;
53775;SDS011;44276;49.534;6.378;2024-03-23T11:18:02;3.15;;;0.60;;
53775;SDS011;44276;49.534;6.378;2024-03-23T11:20:33;2.30;;;0.55;;
53775;SDS011;44276;49.534;6.378;2024-03-23T11:23:00;2.58;;;0.68;;
53775;SDS011;44276;49.534;6.378;2024-03-23T11:25:28;3.72;;;1.42;;
53775;SDS011;44276;49.534;6.378;2024-03-23T11:27:55;4.95;;;1.15;;
53775;SDS011;44276;49.534;6.378;2024-03-23T11:30:25;1.08;;;0.65;;
53775;SDS011;44276;49.534;6.378;2024-03-23T11:32:54;5.95;;;0.90;;
53775;SDS011;44276;49.534;6.378;2024-03-23T11:35:26;2.40;;;0.50;;
53775;SDS011;44276;49.534;6.378;2024-03-23T11:38:03;8.40;;;0.85;;
53775;SDS011;44276;49.534;6.378;2024-03-23T11:40:33;2.78;;;0.60;;
53775;SDS011;44276;49.534;6.378;2024-03-23T11:43:01;7.10;;;1.38;;
53775;SDS011;44276;49.534;6.378;2024-03-23T11:45:35;6.43;;;0.70;;
53775;SDS011;44276;49.534;6.378;2024-03-23T11:48:07;5.72;;;1.08;;
53775;SDS011;44276;49.534;6.378;2024-03-23T11:50:37;4.07;;;0.57;;
53775;SDS011;44276;49.534;6.378;2024-03-23T11:53:13;3.30;;;0.90;;
53775;SDS011;44276;49.534;6.378;2024-03-23T11:55:42;2.78;;;0.70;;
53775;SDS011;44276;49.534;6.378;2024-03-23T11:58:13;3.03;;;1.40;;
53775;SDS011;44276;49.534;6.378;2024-03-23T12:00:48;1.67;;;0.50;;
53775;SDS011;44276;49.534;6.378;2024-03-23T12:03:17;1.55;;;0.60;;
53775;SDS011;44276;49.534;6.378;2024-03-23T12:05:47;1.55;;;0.60;;
53775;SDS011;44276;49.534;6.378;2024-03-23T12:08:19;4.43;;;1.13;;
53775;SDS011;44276;49.534;6.378;2024-03-23T12:10:50;3.72;;;1.30;;
53775;SDS011;44276;49.534;6.378;2024-03-23T12:13:18;3.67;;;0.30;;
53775;SDS011;44276;49.534;6.378;2024-03-23T12:15:49;0.98;;;0.25;;
53775;SDS011;44276;49.534;6.378;2024-03-23T12:18:17;0.38;;;0.28;;
53775;SDS011;44276;49.534;6.378;2024-03-23T12:20:50;3.58;;;0.38;;
53775;SDS011;44276;49.534;6.378;2024-03-23T12:23:17;1.65;;;0.45;;
53775;SDS011;44276;49.534;6.378;2024-03-23T12:25:46;0.90;;;0.30;;
53775;SDS011;44276;49.534;6.378;2024-03-23T12:28:14;2.83;;;0.50;;
53775;SDS011;44276;49.534;6.378;2024-03-23T12:30:42;4.03;;;0.35;;
53775;SDS011;44276;49.534;6.378;2024-03-23T12:33:10;1.23;;;0.25;;
53775;SDS011;44276;49.534;6.378;2024-03-23T12:35:37;4.45;;;0.40;;
53775;SDS011;44276;49.534;6.378;2024-03-23T12:38:04;1.17;;;0.73;;
53775;SDS011;44276;49.534;6.378;2024-03-23T12:40:31;1.15;;;0.30;;
53775;SDS011;44276;49.534;6.378;2024-03-23T12:45:25;2.83;;;0.50;;
53775;SDS011;44276;49.534;6.378;2024-03-23T12:47:52;1.27;;;0.30;;
53775;SDS011;44276;49.534;6.378;2024-03-23T12:50:21;2.70;;;1.00;;
53775;SDS011;44276;49.534;6.378;2024-03-23T12:52:48;6.72;;;0.95;;
53775;SDS011;44276;49.534;6.378;2024-03-23T12:55:16;0.88;;;0.40;;
53775;SDS011;44276;49.534;6.378;2024-03-23T12:57:43;2.80;;;0.50;;
53775;SDS011;44276;49.534;6.378;2024-03-23T13:00:11;5.43;;;1.45;;
53775;SDS011;44276;49.534;6.378;2024-03-23T13:02:41;2.30;;;0.82;;
53775;SDS011;44276;49.534;6.378;2024-03-23T13:05:09;1.35;;;0.50;;
53775;SDS011;44276;49.534;6.378;2024-03-23T13:10:04;2.40;;;0.70;;
53775;SDS011;44276;49.534;6.378;2024-03-23T13:12:31;4.45;;;0.57;;
53775;SDS011;44276;49.534;6.378;2024-03-23T13:14:59;5.78;;;0.57;;
53775;SDS011;44276;49.534;6.378;2024-03-23T13:19:53;2.65;;;0.82;;
53775;SDS011;44276;49.534;6.378;2024-03-23T13:22:20;1.00;;;0.85;;
53775;SDS011;44276;49.534;6.378;2024-03-23T13:24:49;4.50;;;1.35;;
53775;SDS011;44276;49.534;6.378;2024-03-23T13:27:16;1.13;;;1.02;;
53775;SDS011;44276;49.534;6.378;2024-03-23T13:29:44;4.20;;;0.60;;
53775;SDS011;44276;49.534;6.378;2024-03-23T13:32:11;1.02;;;0.25;;
53775;SDS011;44276;49.534;6.378;2024-03-23T13:34:39;2.25;;;0.73;;
53775;SDS011;44276;49.534;6.378;2024-03-23T13:37:05;8.10;;;1.25;;
53775;SDS011;44276;49.534;6.378;2024-03-23T13:39:33;0.75;;;0.40;;
53775;SDS011;44276;49.534;6.378;2024-03-23T13:42:01;6.57;;;0.82;;
53775;SDS011;44276;49.534;6.378;2024-03-23T13:44:29;0.98;;;0.82;;
53775;SDS011;44276;49.534;6.378;2024-03-23T13:46:56;1.13;;;0.32;;
53775;SDS011;44276;49.534;6.378;2024-03-23T13:49:27;3.15;;;0.20;;
53775;SDS011;44276;49.534;6.378;2024-03-23T13:51:56;1.05;;;0.30;;
53775;SDS011;44276;49.534;6.378;2024-03-23T13:54:24;1.63;;;0.70;;
53775;SDS011;44276;49.534;6.378;2024-03-23T13:56:52;0.75;;;0.25;;
53775;SDS011;44276;49.534;6.378;2024-03-23T13:59:21;1.40;;;0.50;;
53775;SDS011;44276;49.534;6.378;2024-03-23T14:01:49;2.40;;;0.45;;
53775;SDS011;44276;49.534;6.378;2024-03-23T14:04:16;1.52;;;0.55;;
53775;SDS011;44276;49.534;6.378;2024-03-23T14:06:45;1.55;;;0.43;;
53775;SDS011;44276;49.534;6.378;2024-03-23T14:09:12;1.27;;;0.68;;
53775;SDS011;44276;49.534;6.378;2024-03-23T14:11:41;7.70;;;0.60;;
53775;SDS011;44276;49.534;6.378;2024-03-23T14:14:09;1.08;;;0.38;;
53775;SDS011;44276;49.534;6.378;2024-03-23T14:16:37;0.60;;;0.40;;
53775;SDS011;44276;49.534;6.378;2024-03-23T14:19:04;15.93;;;1.13;;
53775;SDS011;44276;49.534;6.378;2024-03-23T14:21:31;0.38;;;0.15;;
53775;SDS011;44276;49.534;6.378;2024-03-23T14:23:59;1.75;;;0.40;;
53775;SDS011;44276;49.534;6.378;2024-03-23T14:28:53;0.55;;;0.10;;
53775;SDS011;44276;49.534;6.378;2024-03-23T14:31:20;1.17;;;0.17;;
53775;SDS011;44276;49.534;6.378;2024-03-23T14:33:48;2.53;;;0.85;;
53775;SDS011;44276;49.534;6.378;2024-03-23T14:36:16;0.80;;;0.50;;
53775;SDS011;44276;49.534;6.378;2024-03-23T14:38:46;0.30;;;0.20;;
53775;SDS011;44276;49.534;6.378;2024-03-23T14:41:13;0.70;;;0.38;;
53775;SDS011;44276;49.534;6.378;2024-03-23T14:43:41;3.10;;;0.30;;
53775;SDS011;44276;49.534;6.378;2024-03-23T14:46:09;2.80;;;0.40;;
53775;SDS011;44276;49.534;6.378;2024-03-23T14:48:38;1.38;;;1.10;;
53775;SDS011;44276;49.534;6.378;2024-03-23T14:51:07;2.25;;;0.65;;
53775;SDS011;44276;49.534;6.378;2024-03-23T14:53:36;5.68;;;1.85;;
53775;SDS011;44276;49.534;6.378;2024-03-23T14:56:05;2.38;;;0.50;;
53775;SDS011;44276;49.534;6.378;2024-03-23T14:58:34;0.43;;;0.43;;
53775;SDS011;44276;49.534;6.378;2024-03-23T15:01:01;0.75;;;0.40;;
53775;SDS011;44276;49.534;6.378;2024-03-23T15:03:29;2.08;;;0.80;;
53775;SDS011;44276;49.534;6.378;2024-03-23T15:08:26;1.45;;;0.77;;
53775;SDS011;44276;49.534;6.378;2024-03-23T15:10:53;1.02;;;0.60;;
53775;SDS011;44276;49.534;6.378;2024-03-23T15:13:20;1.13;;;0.43;;
53775;SDS011;44276;49.534;6.378;2024-03-23T15:15:48;1.27;;;0.68;;
53775;SDS011;44276;49.534;6.378;2024-03-23T15:18:17;4.50;;;0.55;;
53775;SDS011;44276;49.534;6.378;2024-03-23T15:20:53;3.70;;;0.47;;
53775;SDS011;44276;49.534;6.378;2024-03-23T15:23:21;2.13;;;0.43;;
53775;SDS011;44276;49.534;6.378;2024-03-23T15:25:55;4.15;;;0.60;;
53775;SDS011;44276;49.534;6.378;2024-03-23T15:28:23;5.78;;;1.00;;
53775;SDS011;44276;49.534;6.378;2024-03-23T15:30:52;4.60;;;0.45;;
53775;SDS011;44276;49.534;6.378;2024-03-23T15:33:20;2.58;;;0.75;;
53775;SDS011;44276;49.534;6.378;2024-03-23T15:35:46;7.10;;;0.80;;
53775;SDS011;44276;49.534;6.378;2024-03-23T15:38:13;2.55;;;0.63;;
53775;SDS011;44276;49.534;6.378;2024-03-23T15:40:39;4.32;;;0.65;;
53775;SDS011;44276;49.534;6.378;2024-03-23T15:43:08;2.20;;;0.50;;
53775;SDS011;44276;49.534;6.378;2024-03-23T15:45:35;0.57;;;0.30;;
53775;SDS011;44276;49.534;6.378;2024-03-23T15:48:03;1.60;;;0.57;;
53775;SDS011;44276;49.534;6.378;2024-03-23T15:50:30;3.83;;;0.95;;
53775;SDS011;44276;49.534;6.378;2024-03-23T15:52:58;0.98;;;0.30;;
53775;SDS011;44276;49.534;6.378;2024-03-23T15:55:24;2.20;;;0.32;;
53775;SDS011;44276;49.534;6.378;2024-03-23T15:57:51;2.00;;;0.30;;
53775;SDS011;44276;49.534;6.378;2024-03-23T16:00:19;4.32;;;0.50;;
53775;SDS011;44276;49.534;6.378;2024-03-23T16:02:47;0.10;;;0.10;;
53775;SDS011;44276;49.534;6.378;2024-03-23T16:05:13;0.52;;;0.25;;
53775;SDS011;44276;49.534;6.378;2024-03-23T16:07:41;1.13;;;0.30;;
53775;SDS011;44276;49.534;6.378;2024-03-23T16:10:07;0.10;;;0.10;;
53775;SDS011;44276;49.534;6.378;2024-03-23T16:12:37;0.80;;;0.70;;
53775;SDS011;44276;49.534;6.378;2024-03-23T16:15:04;1.60;;;0.63;;
53775;SDS011;44276;49.534;6.378;2024-03-23T16:17:34;1.42;;;0.80;;
53775;SDS011;44276;49.534;6.378;2024-03-23T16:20:02;3.30;;;0.90;;
53775;SDS011;44276;49.534;6.378;2024-03-23T16:22:34;1.35;;;0.30;;